sensor_id;sensor_type;location;lat;lon;timestamp;P1;durP1;ratioP1;P2;durP2;ratioP2
66727;SDS011;53641;44.274;19.890;2022-09-28T00:00:25;7.85;;;3.92;;
66727;SDS011;53641;44.274;19.890;2022-09-28T00:02:53;8.40;;;4.25;;
66727;SDS011;53641;44.274;19.890;2022-09-28T00:05:21;10.18;;;4.55;;
66727;SDS011;53641;44.274;19.890;2022-09-28T00:07:51;13.90;;;5.25;;
66727;SDS011;53641;44.274;19.890;2022-09-28T00:10:21;9.88;;;5.38;;
66727;SDS011;53641;44.274;19.890;2022-09-28T00:12:48;10.32;;;5.40;;
66727;SDS011;53641;44.274;19.890;2022-09-28T00:15:14;10.98;;;5.32;;
66727;SDS011;53641;44.274;19.890;2022-09-28T00:17:40;9.57;;;5.38;;
66727;SDS011;53641;44.274;19.890;2022-09-28T00:20:08;7.20;;;5.13;;
66727;SDS011;53641;44.274;19.890;2022-09-28T00:22:35;10.02;;;5.05;;
66727;SDS011;53641;44.274;19.890;2022-09-28T00:25:01;11.50;;;5.25;;
66727;SDS011;53641;44.274;19.890;2022-09-28T00:27:26;10.98;;;4.95;;
66727;SDS011;53641;44.274;19.890;2022-09-28T00:29:52;13.38;;;5.53;;
66727;SDS011;53641;44.274;19.890;2022-09-28T00:32:19;8.48;;;4.82;;
66727;SDS011;53641;44.274;19.890;2022-09-28T00:34:48;8.73;;;4.35;;
66727;SDS011;53641;44.274;19.890;2022-09-28T00:37:15;9.50;;;4.43;;
66727;SDS011;53641;44.274;19.890;2022-09-28T00:39:43;9.05;;;3.92;;
66727;SDS011;53641;44.274;19.890;2022-09-28T00:42:13;9.75;;;4.57;;
66727;SDS011;53641;44.274;19.890;2022-09-28T00:44:53;6.43;;;3.30;;
66727;SDS011;53641;44.274;19.890;2022-09-28T00:47:31;8.75;;;3.22;;
66727;SDS011;53641;44.274;19.890;2022-09-28T00:50:20;5.53;;;3.20;;
66727;SDS011;53641;44.274;19.890;2022-09-28T00:53:12;7.53;;;3.60;;
66727;SDS011;53641;44.274;19.890;2022-09-28T00:55:45;7.55;;;3.15;;
66727;SDS011;53641;44.274;19.890;2022-09-28T00:58:22;9.80;;;2.85;;
66727;SDS011;53641;44.274;19.890;2022-09-28T01:00:50;6.47;;;2.83;;
66727;SDS011;53641;44.274;19.890;2022-09-28T01:03:18;6.30;;;2.70;;
66727;SDS011;53641;44.274;19.890;2022-09-28T01:05:44;5.35;;;2.50;;
66727;SDS011;53641;44.274;19.890;2022-09-28T01:08:12;7.22;;;2.70;;
66727;SDS011;53641;44.274;19.890;2022-09-28T01:10:39;5.28;;;2.72;;
66727;SDS011;53641;44.274;19.890;2022-09-28T01:13:07;6.32;;;2.85;;
66727;SDS011;53641;44.274;19.890;2022-09-28T01:15:35;8.75;;;2.97;;
66727;SDS011;53641;44.274;19.890;2022-09-28T01:18:33;10.63;;;3.15;;
66727;SDS011;53641;44.274;19.890;2022-09-28T01:21:15;8.02;;;3.97;;
66727;SDS011;53641;44.274;19.890;2022-09-28T01:26:46;8.27;;;3.22;;
66727;SDS011;53641;44.274;19.890;2022-09-28T01:29:30;7.97;;;3.65;;
66727;SDS011;53641;44.274;19.890;2022-09-28T01:32:02;5.82;;;3.50;;
66727;SDS011;53641;44.274;19.890;2022-09-28T01:34:36;5.70;;;2.97;;
66727;SDS011;53641;44.274;19.890;2022-09-28T01:37:07;5.07;;;2.45;;
66727;SDS011;53641;44.274;19.890;2022-09-28T01:39:36;3.80;;;2.30;;
66727;SDS011;53641;44.274;19.890;2022-09-28T01:42:08;7.85;;;2.63;;
66727;SDS011;53641;44.274;19.890;2022-09-28T01:44:37;8.93;;;3.10;;
66727;SDS011;53641;44.274;19.890;2022-09-28T01:47:09;3.20;;;1.98;;
66727;SDS011;53641;44.274;19.890;2022-09-28T01:49:39;11.15;;;2.35;;
66727;SDS011;53641;44.274;19.890;2022-09-28T01:52:20;4.57;;;2.38;;
66727;SDS011;53641;44.274;19.890;2022-09-28T01:55:04;5.72;;;2.60;;
66727;SDS011;53641;44.274;19.890;2022-09-28T01:57:47;7.10;;;3.00;;
66727;SDS011;53641;44.274;19.890;2022-09-28T02:00:17;3.75;;;2.58;;
66727;SDS011;53641;44.274;19.890;2022-09-28T02:02:48;4.10;;;2.25;;
66727;SDS011;53641;44.274;19.890;2022-09-28T02:05:20;5.65;;;2.30;;
66727;SDS011;53641;44.274;19.890;2022-09-28T02:07:57;3.88;;;2.00;;
66727;SDS011;53641;44.274;19.890;2022-09-28T02:10:34;7.43;;;2.10;;
66727;SDS011;53641;44.274;19.890;2022-09-28T02:13:07;6.63;;;2.95;;
66727;SDS011;53641;44.274;19.890;2022-09-28T02:15:39;3.97;;;1.85;;
66727;SDS011;53641;44.274;19.890;2022-09-28T02:18:09;10.23;;;2.67;;
66727;SDS011;53641;44.274;19.890;2022-09-28T02:20:35;5.50;;;2.25;;
66727;SDS011;53641;44.274;19.890;2022-09-28T02:23:04;3.85;;;2.20;;
66727;SDS011;53641;44.274;19.890;2022-09-28T02:25:42;9.65;;;2.70;;
66727;SDS011;53641;44.274;19.890;2022-09-28T02:30:42;4.65;;;2.00;;
66727;SDS011;53641;44.274;19.890;2022-09-28T02:33:10;4.25;;;2.13;;
66727;SDS011;53641;44.274;19.890;2022-09-28T02:38:06;3.42;;;1.80;;
66727;SDS011;53641;44.274;19.890;2022-09-28T02:40:33;4.25;;;1.98;;
66727;SDS011;53641;44.274;19.890;2022-09-28T02:43:10;4.30;;;1.75;;
66727;SDS011;53641;44.274;19.890;2022-09-28T02:45:53;2.58;;;1.60;;
66727;SDS011;53641;44.274;19.890;2022-09-28T02:48:52;3.55;;;1.33;;
66727;SDS011;53641;44.274;19.890;2022-09-28T02:51:35;2.25;;;1.30;;
66727;SDS011;53641;44.274;19.890;2022-09-28T02:54:14;2.22;;;1.33;;
66727;SDS011;53641;44.274;19.890;2022-09-28T02:57:06;2.00;;;1.10;;
66727;SDS011;53641;44.274;19.890;2022-09-28T02:59:45;1.27;;;0.90;;
66727;SDS011;53641;44.274;19.890;2022-09-28T03:02:20;2.47;;;1.27;;
66727;SDS011;53641;44.274;19.890;2022-09-28T03:05:06;2.15;;;1.65;;
66727;SDS011;53641;44.274;19.890;2022-09-28T03:07:38;5.53;;;1.30;;
66727;SDS011;53641;44.274;19.890;2022-09-28T03:10:24;1.70;;;1.05;;
66727;SDS011;53641;44.274;19.890;2022-09-28T03:12:54;2.28;;;1.15;;
66727;SDS011;53641;44.274;19.890;2022-09-28T03:15:26;1.70;;;0.77;;
66727;SDS011;53641;44.274;19.890;2022-09-28T03:17:53;2.35;;;1.23;;
66727;SDS011;53641;44.274;19.890;2022-09-28T03:20:19;3.13;;;1.20;;
66727;SDS011;53641;44.274;19.890;2022-09-28T03:22:44;3.90;;;1.15;;
66727;SDS011;53641;44.274;19.890;2022-09-28T03:25:10;4.63;;;1.20;;
66727;SDS011;53641;44.274;19.890;2022-09-28T03:27:36;2.50;;;1.25;;
66727;SDS011;53641;44.274;19.890;2022-09-28T03:30:03;2.00;;;1.05;;
66727;SDS011;53641;44.274;19.890;2022-09-28T03:32:29;3.60;;;1.40;;
66727;SDS011;53641;44.274;19.890;2022-09-28T03:34:55;3.72;;;1.20;;
66727;SDS011;53641;44.274;19.890;2022-09-28T03:37:21;2.05;;;1.00;;
66727;SDS011;53641;44.274;19.890;2022-09-28T03:39:47;3.78;;;0.85;;
66727;SDS011;53641;44.274;19.890;2022-09-28T03:42:13;1.92;;;0.98;;
66727;SDS011;53641;44.274;19.890;2022-09-28T03:44:39;3.13;;;0.80;;
66727;SDS011;53641;44.274;19.890;2022-09-28T03:47:08;4.35;;;1.00;;
66727;SDS011;53641;44.274;19.890;2022-09-28T03:49:33;3.60;;;1.05;;
66727;SDS011;53641;44.274;19.890;2022-09-28T03:51:59;3.05;;;1.25;;
66727;SDS011;53641;44.274;19.890;2022-09-28T03:54:25;3.03;;;1.10;;
66727;SDS011;53641;44.274;19.890;2022-09-28T03:56:51;1.90;;;1.05;;
66727;SDS011;53641;44.274;19.890;2022-09-28T03:59:17;3.15;;;1.20;;
66727;SDS011;53641;44.274;19.890;2022-09-28T04:01:42;3.30;;;1.30;;
66727;SDS011;53641;44.274;19.890;2022-09-28T04:04:11;2.40;;;1.00;;
66727;SDS011;53641;44.274;19.890;2022-09-28T04:06:38;2.50;;;1.13;;
66727;SDS011;53641;44.274;19.890;2022-09-28T04:09:04;2.47;;;0.85;;
66727;SDS011;53641;44.274;19.890;2022-09-28T04:11:29;3.33;;;1.13;;
66727;SDS011;53641;44.274;19.890;2022-09-28T04:13:55;2.78;;;0.98;;
66727;SDS011;53641;44.274;19.890;2022-09-28T04:16:21;2.45;;;1.30;;
66727;SDS011;53641;44.274;19.890;2022-09-28T04:18:47;2.00;;;1.05;;
66727;SDS011;53641;44.274;19.890;2022-09-28T04:21:14;3.17;;;1.35;;
66727;SDS011;53641;44.274;19.890;2022-09-28T04:23:40;4.55;;;1.10;;
66727;SDS011;53641;44.274;19.890;2022-09-28T04:26:12;7.35;;;1.65;;
66727;SDS011;53641;44.274;19.890;2022-09-28T04:28:43;9.18;;;2.13;;
66727;SDS011;53641;44.274;19.890;2022-09-28T04:31:28;6.07;;;1.80;;
66727;SDS011;53641;44.274;19.890;2022-09-28T04:33:55;3.83;;;1.60;;
66727;SDS011;53641;44.274;19.890;2022-09-28T04:36:21;10.85;;;2.22;;
66727;SDS011;53641;44.274;19.890;2022-09-28T04:38:49;5.25;;;1.38;;
66727;SDS011;53641;44.274;19.890;2022-09-28T04:41:14;6.00;;;1.63;;
66727;SDS011;53641;44.274;19.890;2022-09-28T04:43:40;5.07;;;1.98;;
66727;SDS011;53641;44.274;19.890;2022-09-28T04:46:06;10.05;;;1.70;;
66727;SDS011;53641;44.274;19.890;2022-09-28T04:48:32;3.28;;;1.88;;
66727;SDS011;53641;44.274;19.890;2022-09-28T04:50:58;4.57;;;1.80;;
66727;SDS011;53641;44.274;19.890;2022-09-28T04:53:25;3.38;;;1.83;;
66727;SDS011;53641;44.274;19.890;2022-09-28T04:55:55;7.78;;;1.83;;
66727;SDS011;53641;44.274;19.890;2022-09-28T04:58:26;9.55;;;2.60;;
66727;SDS011;53641;44.274;19.890;2022-09-28T05:00:52;8.27;;;2.60;;
66727;SDS011;53641;44.274;19.890;2022-09-28T05:03:22;6.05;;;1.52;;
66727;SDS011;53641;44.274;19.890;2022-09-28T05:05:47;3.70;;;1.90;;
66727;SDS011;53641;44.274;19.890;2022-09-28T05:08:13;7.30;;;1.90;;
66727;SDS011;53641;44.274;19.890;2022-09-28T05:10:40;5.75;;;2.17;;
66727;SDS011;53641;44.274;19.890;2022-09-28T05:13:06;7.22;;;2.75;;
66727;SDS011;53641;44.274;19.890;2022-09-28T05:15:33;6.63;;;3.15;;
66727;SDS011;53641;44.274;19.890;2022-09-28T05:17:59;7.93;;;3.00;;
66727;SDS011;53641;44.274;19.890;2022-09-28T05:20:25;5.45;;;2.63;;
66727;SDS011;53641;44.274;19.890;2022-09-28T05:22:51;5.57;;;2.70;;
66727;SDS011;53641;44.274;19.890;2022-09-28T05:25:17;5.47;;;2.30;;
66727;SDS011;53641;44.274;19.890;2022-09-28T05:27:43;5.90;;;2.47;;
66727;SDS011;53641;44.274;19.890;2022-09-28T05:30:09;3.70;;;2.53;;
66727;SDS011;53641;44.274;19.890;2022-09-28T05:32:39;3.47;;;2.05;;
66727;SDS011;53641;44.274;19.890;2022-09-28T05:35:05;7.20;;;1.92;;
66727;SDS011;53641;44.274;19.890;2022-09-28T05:37:31;4.68;;;2.60;;
66727;SDS011;53641;44.274;19.890;2022-09-28T05:39:57;14.73;;;3.72;;
66727;SDS011;53641;44.274;19.890;2022-09-28T05:42:23;8.27;;;2.60;;
66727;SDS011;53641;44.274;19.890;2022-09-28T05:44:49;6.72;;;3.00;;
66727;SDS011;53641;44.274;19.890;2022-09-28T05:47:14;8.43;;;2.80;;
66727;SDS011;53641;44.274;19.890;2022-09-28T05:49:40;7.60;;;2.90;;
66727;SDS011;53641;44.274;19.890;2022-09-28T05:52:08;5.35;;;2.70;;
66727;SDS011;53641;44.274;19.890;2022-09-28T05:54:35;4.07;;;2.58;;
66727;SDS011;53641;44.274;19.890;2022-09-28T05:57:01;7.28;;;3.03;;
66727;SDS011;53641;44.274;19.890;2022-09-28T05:59:32;5.38;;;3.35;;
66727;SDS011;53641;44.274;19.890;2022-09-28T06:02:00;6.10;;;2.25;;
66727;SDS011;53641;44.274;19.890;2022-09-28T06:04:26;11.65;;;2.47;;
66727;SDS011;53641;44.274;19.890;2022-09-28T06:06:53;7.20;;;2.10;;
66727;SDS011;53641;44.274;19.890;2022-09-28T06:09:18;5.75;;;2.90;;
66727;SDS011;53641;44.274;19.890;2022-09-28T06:11:44;5.18;;;2.70;;
66727;SDS011;53641;44.274;19.890;2022-09-28T06:14:12;7.95;;;2.20;;
66727;SDS011;53641;44.274;19.890;2022-09-28T06:16:38;7.57;;;3.60;;
66727;SDS011;53641;44.274;19.890;2022-09-28T06:19:04;4.25;;;3.03;;
66727;SDS011;53641;44.274;19.890;2022-09-28T06:21:30;3.80;;;2.28;;
66727;SDS011;53641;44.274;19.890;2022-09-28T06:23:55;3.90;;;2.72;;
66727;SDS011;53641;44.274;19.890;2022-09-28T06:26:21;6.47;;;3.70;;
66727;SDS011;53641;44.274;19.890;2022-09-28T06:28:47;5.20;;;2.40;;
66727;SDS011;53641;44.274;19.890;2022-09-28T06:31:12;5.65;;;2.70;;
66727;SDS011;53641;44.274;19.890;2022-09-28T06:33:39;4.30;;;2.08;;
66727;SDS011;53641;44.274;19.890;2022-09-28T06:36:06;5.10;;;2.30;;
66727;SDS011;53641;44.274;19.890;2022-09-28T06:38:33;3.00;;;1.67;;
66727;SDS011;53641;44.274;19.890;2022-09-28T06:40:58;3.55;;;1.90;;
66727;SDS011;53641;44.274;19.890;2022-09-28T06:43:24;3.33;;;1.73;;
66727;SDS011;53641;44.274;19.890;2022-09-28T06:45:52;4.03;;;2.22;;
66727;SDS011;53641;44.274;19.890;2022-09-28T06:48:18;4.65;;;2.10;;
66727;SDS011;53641;44.274;19.890;2022-09-28T06:50:44;4.97;;;2.40;;
66727;SDS011;53641;44.274;19.890;2022-09-28T06:53:11;8.73;;;4.15;;
66727;SDS011;53641;44.274;19.890;2022-09-28T06:55:39;4.50;;;2.70;;
66727;SDS011;53641;44.274;19.890;2022-09-28T06:58:06;5.72;;;3.08;;
66727;SDS011;53641;44.274;19.890;2022-09-28T07:00:36;7.38;;;3.15;;
66727;SDS011;53641;44.274;19.890;2022-09-28T07:03:04;7.30;;;3.95;;
66727;SDS011;53641;44.274;19.890;2022-09-28T07:05:33;5.95;;;3.35;;
66727;SDS011;53641;44.274;19.890;2022-09-28T07:08:01;5.97;;;3.78;;
66727;SDS011;53641;44.274;19.890;2022-09-28T07:10:28;5.82;;;3.40;;
66727;SDS011;53641;44.274;19.890;2022-09-28T07:12:55;4.13;;;2.95;;
66727;SDS011;53641;44.274;19.890;2022-09-28T07:15:22;6.20;;;2.78;;
66727;SDS011;53641;44.274;19.890;2022-09-28T07:17:48;5.45;;;3.45;;
66727;SDS011;53641;44.274;19.890;2022-09-28T07:20:21;7.45;;;3.72;;
66727;SDS011;53641;44.274;19.890;2022-09-28T07:22:54;11.75;;;3.03;;
66727;SDS011;53641;44.274;19.890;2022-09-28T07:25:21;12.23;;;2.85;;
66727;SDS011;53641;44.274;19.890;2022-09-28T07:27:48;5.80;;;2.28;;
66727;SDS011;53641;44.274;19.890;2022-09-28T07:30:14;6.88;;;2.88;;
66727;SDS011;53641;44.274;19.890;2022-09-28T07:32:40;9.90;;;3.15;;
66727;SDS011;53641;44.274;19.890;2022-09-28T07:35:13;6.72;;;3.30;;
66727;SDS011;53641;44.274;19.890;2022-09-28T07:37:39;8.82;;;3.90;;
66727;SDS011;53641;44.274;19.890;2022-09-28T07:40:05;6.78;;;3.55;;
66727;SDS011;53641;44.274;19.890;2022-09-28T07:42:52;8.85;;;3.60;;
66727;SDS011;53641;44.274;19.890;2022-09-28T07:45:18;9.18;;;4.70;;
66727;SDS011;53641;44.274;19.890;2022-09-28T07:47:45;6.07;;;4.00;;
66727;SDS011;53641;44.274;19.890;2022-09-28T07:50:10;9.57;;;4.90;;
66727;SDS011;53641;44.274;19.890;2022-09-28T07:52:36;9.85;;;5.20;;
66727;SDS011;53641;44.274;19.890;2022-09-28T07:55:05;7.45;;;4.45;;
66727;SDS011;53641;44.274;19.890;2022-09-28T07:57:31;8.55;;;4.82;;
66727;SDS011;53641;44.274;19.890;2022-09-28T07:59:57;7.55;;;4.43;;
66727;SDS011;53641;44.274;19.890;2022-09-28T08:02:24;9.63;;;4.55;;
66727;SDS011;53641;44.274;19.890;2022-09-28T08:04:50;8.82;;;4.63;;
66727;SDS011;53641;44.274;19.890;2022-09-28T08:07:17;8.98;;;4.65;;
66727;SDS011;53641;44.274;19.890;2022-09-28T08:09:44;9.18;;;5.13;;
66727;SDS011;53641;44.274;19.890;2022-09-28T08:12:10;9.73;;;5.85;;
66727;SDS011;53641;44.274;19.890;2022-09-28T08:14:37;11.68;;;6.28;;
66727;SDS011;53641;44.274;19.890;2022-09-28T08:17:03;11.95;;;6.22;;
66727;SDS011;53641;44.274;19.890;2022-09-28T08:19:30;13.25;;;6.60;;
66727;SDS011;53641;44.274;19.890;2022-09-28T08:22:17;9.30;;;5.72;;
66727;SDS011;53641;44.274;19.890;2022-09-28T08:24:44;9.50;;;5.30;;
66727;SDS011;53641;44.274;19.890;2022-09-28T08:27:14;9.88;;;5.20;;
66727;SDS011;53641;44.274;19.890;2022-09-28T08:29:42;9.48;;;5.22;;
66727;SDS011;53641;44.274;19.890;2022-09-28T08:32:09;7.60;;;4.97;;
66727;SDS011;53641;44.274;19.890;2022-09-28T08:34:35;9.63;;;4.82;;
66727;SDS011;53641;44.274;19.890;2022-09-28T08:37:01;9.77;;;5.50;;
66727;SDS011;53641;44.274;19.890;2022-09-28T08:39:27;8.68;;;5.03;;
66727;SDS011;53641;44.274;19.890;2022-09-28T08:42:00;7.72;;;5.22;;
66727;SDS011;53641;44.274;19.890;2022-09-28T08:44:38;12.38;;;6.47;;
66727;SDS011;53641;44.274;19.890;2022-09-28T08:47:09;11.05;;;6.75;;
66727;SDS011;53641;44.274;19.890;2022-09-28T08:50:02;13.27;;;5.35;;
66727;SDS011;53641;44.274;19.890;2022-09-28T08:52:32;8.20;;;5.10;;
66727;SDS011;53641;44.274;19.890;2022-09-28T08:57:42;7.47;;;4.05;;
66727;SDS011;53641;44.274;19.890;2022-09-28T09:00:14;9.50;;;4.95;;
66727;SDS011;53641;44.274;19.890;2022-09-28T09:02:43;9.35;;;4.05;;
66727;SDS011;53641;44.274;19.890;2022-09-28T09:05:11;7.30;;;3.35;;
66727;SDS011;53641;44.274;19.890;2022-09-28T09:07:53;11.38;;;3.97;;
66727;SDS011;53641;44.274;19.890;2022-09-28T09:10:50;6.38;;;3.20;;
66727;SDS011;53641;44.274;19.890;2022-09-28T09:13:42;9.00;;;3.70;;
66727;SDS011;53641;44.274;19.890;2022-09-28T09:16:30;8.82;;;4.80;;
66727;SDS011;53641;44.274;19.890;2022-09-28T09:19:15;7.30;;;4.78;;
66727;SDS011;53641;44.274;19.890;2022-09-28T09:22:04;10.02;;;4.65;;
66727;SDS011;53641;44.274;19.890;2022-09-28T09:24:43;6.75;;;3.92;;
66727;SDS011;53641;44.274;19.890;2022-09-28T09:27:27;6.68;;;4.28;;
66727;SDS011;53641;44.274;19.890;2022-09-28T09:30:08;8.38;;;4.65;;
66727;SDS011;53641;44.274;19.890;2022-09-28T09:32:49;15.05;;;4.75;;
66727;SDS011;53641;44.274;19.890;2022-09-28T09:38:40;5.15;;;3.72;;
66727;SDS011;53641;44.274;19.890;2022-09-28T09:41:44;8.90;;;3.70;;
66727;SDS011;53641;44.274;19.890;2022-09-28T09:44:51;4.15;;;3.53;;
66727;SDS011;53641;44.274;19.890;2022-09-28T09:47:38;5.78;;;4.53;;
66727;SDS011;53641;44.274;19.890;2022-09-28T09:50:14;8.00;;;4.28;;
66727;SDS011;53641;44.274;19.890;2022-09-28T09:52:50;17.20;;;10.73;;
66727;SDS011;53641;44.274;19.890;2022-09-28T09:55:32;8.40;;;4.10;;
66727;SDS011;53641;44.274;19.890;2022-09-28T09:58:09;5.22;;;4.53;;
66727;SDS011;53641;44.274;19.890;2022-09-28T10:00:49;5.88;;;4.40;;
66727;SDS011;53641;44.274;19.890;2022-09-28T10:03:27;6.25;;;4.63;;
66727;SDS011;53641;44.274;19.890;2022-09-28T10:06:06;8.48;;;5.18;;
66727;SDS011;53641;44.274;19.890;2022-09-28T10:08:40;7.00;;;4.75;;
66727;SDS011;53641;44.274;19.890;2022-09-28T10:11:19;8.18;;;4.65;;
66727;SDS011;53641;44.274;19.890;2022-09-28T10:13:50;7.13;;;4.28;;
66727;SDS011;53641;44.274;19.890;2022-09-28T10:16:16;7.07;;;4.68;;
66727;SDS011;53641;44.274;19.890;2022-09-28T10:18:42;7.55;;;4.55;;
66727;SDS011;53641;44.274;19.890;2022-09-28T10:21:12;7.43;;;4.18;;
66727;SDS011;53641;44.274;19.890;2022-09-28T10:23:45;5.78;;;4.18;;
66727;SDS011;53641;44.274;19.890;2022-09-28T10:26:23;5.47;;;4.22;;
66727;SDS011;53641;44.274;19.890;2022-09-28T10:28:54;6.95;;;4.40;;
66727;SDS011;53641;44.274;19.890;2022-09-28T10:31:35;6.05;;;4.10;;
66727;SDS011;53641;44.274;19.890;2022-09-28T10:34:05;6.95;;;4.47;;
66727;SDS011;53641;44.274;19.890;2022-09-28T10:36:32;10.02;;;4.65;;
66727;SDS011;53641;44.274;19.890;2022-09-28T10:39:20;7.00;;;5.22;;
66727;SDS011;53641;44.274;19.890;2022-09-28T10:42:00;6.47;;;3.60;;
66727;SDS011;53641;44.274;19.890;2022-09-28T10:44:30;7.20;;;3.63;;
66727;SDS011;53641;44.274;19.890;2022-09-28T10:46:59;6.60;;;3.70;;
66727;SDS011;53641;44.274;19.890;2022-09-28T10:49:26;8.80;;;3.92;;
66727;SDS011;53641;44.274;19.890;2022-09-28T10:51:54;4.97;;;4.03;;
66727;SDS011;53641;44.274;19.890;2022-09-28T10:54:24;6.75;;;3.67;;
66727;SDS011;53641;44.274;19.890;2022-09-28T10:56:52;4.57;;;3.83;;
66727;SDS011;53641;44.274;19.890;2022-09-28T10:59:36;6.68;;;3.92;;
66727;SDS011;53641;44.274;19.890;2022-09-28T11:02:16;10.40;;;4.22;;
66727;SDS011;53641;44.274;19.890;2022-09-28T11:04:48;4.88;;;3.05;;
66727;SDS011;53641;44.274;19.890;2022-09-28T11:07:18;6.00;;;3.40;;
66727;SDS011;53641;44.274;19.890;2022-09-28T11:09:46;5.38;;;3.63;;
66727;SDS011;53641;44.274;19.890;2022-09-28T11:12:14;3.78;;;3.22;;
66727;SDS011;53641;44.274;19.890;2022-09-28T11:14:43;4.63;;;3.67;;
66727;SDS011;53641;44.274;19.890;2022-09-28T11:17:15;4.95;;;3.25;;
66727;SDS011;53641;44.274;19.890;2022-09-28T11:19:57;11.10;;;3.78;;
66727;SDS011;53641;44.274;19.890;2022-09-28T11:22:28;5.25;;;3.20;;
66727;SDS011;53641;44.274;19.890;2022-09-28T11:25:20;5.30;;;3.53;;
66727;SDS011;53641;44.274;19.890;2022-09-28T11:27:57;6.28;;;4.15;;
66727;SDS011;53641;44.274;19.890;2022-09-28T11:30:30;6.07;;;3.78;;
66727;SDS011;53641;44.274;19.890;2022-09-28T11:33:02;5.65;;;3.80;;
66727;SDS011;53641;44.274;19.890;2022-09-28T11:35:40;5.55;;;3.63;;
66727;SDS011;53641;44.274;19.890;2022-09-28T11:38:35;4.70;;;3.60;;
66727;SDS011;53641;44.274;19.890;2022-09-28T11:44:27;4.50;;;3.55;;
66727;SDS011;53641;44.274;19.890;2022-09-28T11:47:36;6.63;;;4.07;;
66727;SDS011;53641;44.274;19.890;2022-09-28T11:50:20;5.22;;;3.42;;
66727;SDS011;53641;44.274;19.890;2022-09-28T11:52:56;4.68;;;3.38;;
66727;SDS011;53641;44.274;19.890;2022-09-28T11:55:36;5.75;;;3.60;;
66727;SDS011;53641;44.274;19.890;2022-09-28T11:58:16;8.38;;;3.38;;
66727;SDS011;53641;44.274;19.890;2022-09-28T12:00:49;3.95;;;3.13;;
66727;SDS011;53641;44.274;19.890;2022-09-28T12:03:27;5.18;;;3.15;;
66727;SDS011;53641;44.274;19.890;2022-09-28T12:06:01;5.15;;;3.10;;
66727;SDS011;53641;44.274;19.890;2022-09-28T12:08:33;6.03;;;3.38;;
66727;SDS011;53641;44.274;19.890;2022-09-28T12:11:05;6.03;;;3.90;;
66727;SDS011;53641;44.274;19.890;2022-09-28T12:13:39;4.60;;;3.00;;
66727;SDS011;53641;44.274;19.890;2022-09-28T12:16:14;4.20;;;3.22;;
66727;SDS011;53641;44.274;19.890;2022-09-28T12:18:51;7.63;;;3.67;;
66727;SDS011;53641;44.274;19.890;2022-09-28T12:21:27;4.30;;;3.33;;
66727;SDS011;53641;44.274;19.890;2022-09-28T12:24:32;8.75;;;4.85;;
66727;SDS011;53641;44.274;19.890;2022-09-28T12:27:03;7.07;;;3.40;;
66727;SDS011;53641;44.274;19.890;2022-09-28T12:29:43;6.05;;;3.70;;
66727;SDS011;53641;44.274;19.890;2022-09-28T12:32:16;7.20;;;3.00;;
66727;SDS011;53641;44.274;19.890;2022-09-28T12:34:55;5.25;;;3.50;;
66727;SDS011;53641;44.274;19.890;2022-09-28T12:37:25;6.00;;;3.72;;
66727;SDS011;53641;44.274;19.890;2022-09-28T12:43:09;4.05;;;2.75;;
66727;SDS011;53641;44.274;19.890;2022-09-28T12:46:02;4.32;;;3.03;;
66727;SDS011;53641;44.274;19.890;2022-09-28T12:48:45;6.35;;;4.28;;
66727;SDS011;53641;44.274;19.890;2022-09-28T12:51:46;3.60;;;2.72;;
66727;SDS011;53641;44.274;19.890;2022-09-28T12:54:24;5.18;;;2.80;;
66727;SDS011;53641;44.274;19.890;2022-09-28T12:57:14;6.10;;;2.55;;
66727;SDS011;53641;44.274;19.890;2022-09-28T12:59:52;7.22;;;4.57;;
66727;SDS011;53641;44.274;19.890;2022-09-28T13:02:53;5.78;;;2.90;;
66727;SDS011;53641;44.274;19.890;2022-09-28T13:05:59;4.97;;;2.53;;
66727;SDS011;53641;44.274;19.890;2022-09-28T13:08:42;5.07;;;2.60;;
66727;SDS011;53641;44.274;19.890;2022-09-28T13:11:33;4.00;;;2.33;;
66727;SDS011;53641;44.274;19.890;2022-09-28T13:14:49;6.57;;;3.22;;
66727;SDS011;53641;44.274;19.890;2022-09-28T13:17:18;4.28;;;3.13;;
66727;SDS011;53641;44.274;19.890;2022-09-28T13:19:56;3.28;;;2.28;;
66727;SDS011;53641;44.274;19.890;2022-09-28T13:22:38;5.20;;;2.85;;
66727;SDS011;53641;44.274;19.890;2022-09-28T13:25:15;4.85;;;2.90;;
66727;SDS011;53641;44.274;19.890;2022-09-28T13:27:50;6.43;;;2.55;;
66727;SDS011;53641;44.274;19.890;2022-09-28T13:30:20;12.75;;;2.90;;
66727;SDS011;53641;44.274;19.890;2022-09-28T13:32:47;5.50;;;2.92;;
66727;SDS011;53641;44.274;19.890;2022-09-28T13:35:14;5.22;;;2.83;;
66727;SDS011;53641;44.274;19.890;2022-09-28T13:37:45;5.10;;;2.65;;
66727;SDS011;53641;44.274;19.890;2022-09-28T13:40:12;5.10;;;3.10;;
66727;SDS011;53641;44.274;19.890;2022-09-28T13:42:53;5.28;;;2.85;;
66727;SDS011;53641;44.274;19.890;2022-09-28T13:45:36;4.53;;;2.75;;
66727;SDS011;53641;44.274;19.890;2022-09-28T13:48:13;4.22;;;2.70;;
66727;SDS011;53641;44.274;19.890;2022-09-28T13:50:53;5.05;;;2.80;;
66727;SDS011;53641;44.274;19.890;2022-09-28T13:53:41;4.72;;;2.28;;
66727;SDS011;53641;44.274;19.890;2022-09-28T13:56:18;5.70;;;2.58;;
66727;SDS011;53641;44.274;19.890;2022-09-28T13:58:50;4.25;;;2.50;;
66727;SDS011;53641;44.274;19.890;2022-09-28T14:01:23;4.70;;;2.55;;
66727;SDS011;53641;44.274;19.890;2022-09-28T14:04:08;3.95;;;2.50;;
66727;SDS011;53641;44.274;19.890;2022-09-28T14:06:43;6.75;;;2.47;;
66727;SDS011;53641;44.274;19.890;2022-09-28T14:09:23;3.60;;;2.10;;
66727;SDS011;53641;44.274;19.890;2022-09-28T14:12:42;4.28;;;2.20;;
66727;SDS011;53641;44.274;19.890;2022-09-28T14:14:55;5.25;;;2.92;;
66727;SDS011;53641;44.274;19.890;2022-09-28T14:17:50;4.95;;;2.25;;
66727;SDS011;53641;44.274;19.890;2022-09-28T14:20:26;5.50;;;2.65;;
66727;SDS011;53641;44.274;19.890;2022-09-28T14:23:22;7.72;;;2.70;;
66727;SDS011;53641;44.274;19.890;2022-09-28T14:26:04;6.20;;;2.67;;
66727;SDS011;53641;44.274;19.890;2022-09-28T14:28:50;8.13;;;2.42;;
66727;SDS011;53641;44.274;19.890;2022-09-28T14:31:27;6.00;;;2.45;;
66727;SDS011;53641;44.274;19.890;2022-09-28T14:33:54;6.00;;;3.22;;
66727;SDS011;53641;44.274;19.890;2022-09-28T14:36:26;6.88;;;3.10;;
66727;SDS011;53641;44.274;19.890;2022-09-28T14:39:19;5.30;;;2.92;;
66727;SDS011;53641;44.274;19.890;2022-09-28T14:42:14;9.75;;;3.55;;
66727;SDS011;53641;44.274;19.890;2022-09-28T14:45:18;6.27;;;3.20;;
66727;SDS011;53641;44.274;19.890;2022-09-28T14:48:01;4.28;;;2.60;;
66727;SDS011;53641;44.274;19.890;2022-09-28T14:50:29;7.63;;;2.92;;
66727;SDS011;53641;44.274;19.890;2022-09-28T14:53:05;4.82;;;2.72;;
66727;SDS011;53641;44.274;19.890;2022-09-28T14:55:47;3.95;;;2.80;;
66727;SDS011;53641;44.274;19.890;2022-09-28T14:58:16;6.82;;;2.92;;
66727;SDS011;53641;44.274;19.890;2022-09-28T15:00:43;6.97;;;3.60;;
66727;SDS011;53641;44.274;19.890;2022-09-28T15:03:12;5.95;;;3.13;;
66727;SDS011;53641;44.274;19.890;2022-09-28T15:05:42;8.98;;;3.53;;
66727;SDS011;53641;44.274;19.890;2022-09-28T15:08:11;10.02;;;4.05;;
66727;SDS011;53641;44.274;19.890;2022-09-28T15:10:45;6.70;;;3.50;;
66727;SDS011;53641;44.274;19.890;2022-09-28T15:13:23;4.60;;;3.10;;
66727;SDS011;53641;44.274;19.890;2022-09-28T15:15:51;6.22;;;3.95;;
66727;SDS011;53641;44.274;19.890;2022-09-28T15:18:29;10.00;;;3.88;;
66727;SDS011;53641;44.274;19.890;2022-09-28T15:21:19;11.63;;;4.13;;
66727;SDS011;53641;44.274;19.890;2022-09-28T15:23:45;6.28;;;3.67;;
66727;SDS011;53641;44.274;19.890;2022-09-28T15:26:19;8.70;;;4.28;;
66727;SDS011;53641;44.274;19.890;2022-09-28T15:28:50;8.88;;;4.43;;